WXM80 ListenWXM80 Stop

You find our weather info also at:

UK Metoffice

WeatherCloud

Weather Underground

Northeastern Weather Network

AWEKAS

Citizen Weather Observer Program (CWOP)

HAMweather, WeatherForYou, PWS Weather


Weather Underground History page Text

Daily Summary for July 26, 2016 Units:  English    Metric   Both
« Previous Day
Next Day »
Daily Weekly Monthly Yearly Custom
  High: Low: Average:
Temperature: 94.0 °F 71.7 °F 81.3 °F
Dew Point: 75.9 °F 66.2 °F 70.8 °F
Humidity: 97 % 44 % 74 %
Wind Speed: 7.0 mph 0.0 mph 2.2 mph
Wind Gust: 13.0 mph - -
Wind:- - West
Pressure: 29.89 in 29.81 in -
Precipitation: 0.00 in    
Historical Graphs
 
 
Tabular Data for July 26, 2016
Time Temperature Dew Point Pressure Wind Wind Speed Wind Gust Humidity Rainfall Rate (Hourly)
00:04 73.1 °F 71.9 °F 29.83 in SW 1.7 mph 5.8 mph 96 % 0.00 in
00:09 73.1 °F 71.9 °F 29.83 in SSW 1.2 mph 3.5 mph 96 % 0.00 in
00:14 73.1 °F 71.9 °F 29.82 in WSW 0.5 mph 2.3 mph 96 % 0.00 in
00:19 73.1 °F 71.9 °F 29.82 in WSW 2.3 mph 4.6 mph 96 % 0.00 in
00:24 73.1 °F 71.9 °F 29.82 in SW 1.2 mph 3.5 mph 96 % 0.00 in
00:29 73.1 °F 71.9 °F 29.82 in SW 0.1 mph 3.5 mph 96 % 0.00 in
00:34 73.0 °F 71.8 °F 29.82 in SW 1.3 mph 6.9 mph 96 % 0.00 in
00:39 73.0 °F 71.8 °F 29.82 in SW 1.8 mph 5.0 mph 96 % 0.00 in
00:45 73.0 °F 71.8 °F 29.82 in Calm   1.2 mph 96 % 0.00 in
00:50 73.1 °F 71.9 °F 29.82 in Calm   3.5 mph 96 % 0.00 in
00:55 73.1 °F 71.9 °F 29.82 in SW 2.2 mph 4.6 mph 96 % 0.00 in
01:00 73.1 °F 72.2 °F 29.82 in Calm   2.3 mph 97 % 0.00 in
01:05 73.2 °F 72.3 °F 29.82 in West 0.5 mph 2.3 mph 97 % 0.00 in
01:10 73.3 °F 72.4 °F 29.82 in WSW 1.9 mph 3.5 mph 97 % 0.00 in
01:15 73.3 °F 72.4 °F 29.82 in WSW 1.4 mph 3.5 mph 97 % 0.00 in
01:20 73.3 °F 72.4 °F 29.82 in WSW 0.2 mph 1.2 mph 97 % 0.00 in
01:25 73.3 °F 72.4 °F 29.82 in WNW 0.2 mph 1.2 mph 97 % 0.00 in
01:30 73.4 °F 72.5 °F 29.82 in SW 0.6 mph 2.3 mph 97 % 0.00 in
01:35 73.5 °F 72.6 °F 29.82 in WSW 0.8 mph 2.3 mph 97 % 0.00 in
01:40 73.6 °F 72.7 °F 29.82 in Calm     97 % 0.00 in
01:46 73.7 °F 72.8 °F 29.81 in West 1.0 mph 4.0 mph 97 % 0.00 in
01:51 73.7 °F 72.8 °F 29.81 in WNW 2.0 mph 7.0 mph 97 % 0.00 in
01:56 73.7 °F 72.8 °F 29.81 in West 1.0 mph 8.0 mph 97 % 0.00 in
02:01 73.7 °F 72.8 °F 29.81 in WNW 2.0 mph 8.1 mph 97 % 0.00 in
02:06 73.6 °F 72.4 °F 29.81 in West 2.7 mph 6.9 mph 96 % 0.00 in
02:11 73.5 °F 72.3 °F 29.81 in WNW 1.3 mph 3.5 mph 96 % 0.00 in
02:16 73.4 °F 72.2 °F 29.81 in WSW 1.6 mph 3.5 mph 96 % 0.00 in
02:21 73.4 °F 72.2 °F 29.81 in NW 3.5 mph 6.9 mph 96 % 0.00 in
02:26 73.3 °F 72.1 °F 29.81 in WSW 4.8 mph 11.5 mph 96 % 0.00 in
02:31 73.3 °F 72.1 °F 29.81 in WSW 3.2 mph 4.6 mph 96 % 0.00 in
02:36 73.2 °F 72.0 °F 29.81 in WSW 2.7 mph 4.6 mph 96 % 0.00 in
02:41 73.2 °F 72.0 °F 29.81 in NW 3.2 mph 8.1 mph 96 % 0.00 in
02:47 73.1 °F 71.9 °F 29.81 in SW 2.6 mph 3.5 mph 96 % 0.00 in
02:52 73.0 °F 71.8 °F 29.81 in NW 1.2 mph 5.0 mph 96 % 0.00 in
02:57 73.0 °F 71.8 °F 29.81 in WSW 3.4 mph 4.6 mph 96 % 0.00 in
03:02 72.9 °F 71.4 °F 29.81 in NW 2.4 mph 4.6 mph 95 % 0.00 in
03:07 72.8 °F 71.3 °F 29.81 in SSW 1.4 mph 4.0 mph 95 % 0.00 in
03:12 72.8 °F 71.3 °F 29.81 in NW 4.0 mph 8.1 mph 95 % 0.00 in
03:17 72.7 °F 71.2 °F 29.81 in WSW 3.9 mph 6.9 mph 95 % 0.00 in
03:22 72.7 °F 71.2 °F 29.81 in NW 1.7 mph 4.6 mph 95 % 0.00 in
03:27 72.6 °F 71.1 °F 29.81 in SSW 0.1 mph 3.5 mph 95 % 0.00 in
03:32 72.6 °F 71.1 °F 29.81 in WSW 1.8 mph 4.6 mph 95 % 0.00 in
03:38 72.5 °F 71.0 °F 29.81 in WSW 3.0 mph 4.6 mph 95 % 0.00 in
03:43 72.5 °F 71.0 °F 29.81 in SW 1.9 mph 3.5 mph 95 % 0.00 in
03:48 72.5 °F 71.0 °F 29.81 in WSW 2.3 mph 3.5 mph 95 % 0.00 in
03:53 72.4 °F 70.9 °F 29.82 in WSW 3.7 mph 6.9 mph 95 % 0.00 in
03:58 72.4 °F 70.9 °F 29.82 in West 2.4 mph 5.0 mph 95 % 0.00 in
04:03 72.4 °F 70.9 °F 29.82 in WSW 3.6 mph 9.2 mph 95 % 0.00 in
04:08 72.3 °F 70.8 °F 29.82 in WSW 0.8 mph 3.5 mph 95 % 0.00 in
04:13 72.3 °F 70.8 °F 29.82 in SW 3.1 mph 6.9 mph 95 % 0.00 in
04:18 72.2 °F 70.7 °F 29.82 in WSW 0.5 mph 2.3 mph 95 % 0.00 in
04:23 72.2 °F 70.7 °F 29.82 in West 1.8 mph 4.0 mph 95 % 0.00 in
04:29 72.2 °F 70.7 °F 29.82 in SW 2.8 mph 4.6 mph 95 % 0.00 in
04:34 72.2 °F 70.7 °F 29.82 in WSW 0.9 mph 3.5 mph 95 % 0.00 in
04:39 72.2 °F 70.7 °F 29.82 in SW 0.3 mph 2.3 mph 95 % 0.00 in
04:44 72.1 °F 70.6 °F 29.82 in West 1.3 mph 3.5 mph 95 % 0.00 in
04:49 72.0 °F 70.5 °F 29.83 in SW 2.8 mph 5.0 mph 95 % 0.00 in
04:54 72.0 °F 70.5 °F 29.83 in West 0.1 mph 2.3 mph 95 % 0.00 in
04:59 71.9 °F 70.4 °F 29.83 in West 3.3 mph 6.9 mph 95 % 0.00 in
05:04 71.9 °F 70.4 °F 29.83 in WSW 0.5 mph 2.0 mph 95 % 0.00 in
05:09 71.9 °F 70.4 °F 29.83 in WSW 0.2 mph 2.3 mph 95 % 0.00 in
05:14 71.9 °F 70.4 °F 29.83 in SSW 1.8 mph 3.5 mph 95 % 0.00 in
05:20 71.8 °F 70.3 °F 29.83 in WSW 2.3 mph 3.5 mph 95 % 0.00 in
05:25 71.8 °F 70.3 °F 29.83 in Calm   6.9 mph 95 % 0.00 in
05:30 71.8 °F 70.3 °F 29.83 in SW 1.4 mph 3.5 mph 95 % 0.00 in
05:35 71.8 °F 70.3 °F 29.83 in SW 2.5 mph 3.5 mph 95 % 0.00 in
05:40 71.8 °F 70.3 °F 29.83 in WSW 2.6 mph 5.0 mph 95 % 0.00 in
05:45 71.7 °F 70.2 °F 29.83 in WSW 3.5 mph 5.8 mph 95 % 0.00 in
05:50 71.7 °F 70.2 °F 29.84 in WSW 1.3 mph 3.5 mph 95 % 0.00 in
05:55 71.7 °F 70.2 °F 29.84 in West 0.9 mph 3.5 mph 95 % 0.00 in
06:00 71.7 °F 70.2 °F 29.84 in West 1.8 mph 3.5 mph 95 % 0.00 in
06:05 71.7 °F 70.2 °F 29.84 in WNW 2.2 mph 4.0 mph 95 % 0.00 in
06:11 71.7 °F 70.2 °F 29.84 in WSW 2.4 mph 3.5 mph 95 % 0.00 in
06:16 71.7 °F 70.2 °F 29.84 in WSW 2.0 mph 6.0 mph 95 % 0.00 in
06:21 71.7 °F 70.2 °F 29.84 in WSW 2.0 mph 6.0 mph 95 % 0.00 in
06:26 71.7 °F 70.2 °F 29.84 in WSW 2.0 mph 6.0 mph 95 % 0.00 in
06:31 71.8 °F 70.3 °F 29.84 in WSW 3.0 mph 9.0 mph 95 % 0.00 in
06:36 71.9 °F 70.4 °F 29.84 in WSW 1.8 mph 4.6 mph 95 % 0.00 in
06:41 72.1 °F 70.6 °F 29.85 in WSW 2.5 mph 8.1 mph 95 % 0.00 in
06:46 72.2 °F 70.7 °F 29.85 in SW 3.5 mph 7.0 mph 95 % 0.00 in
06:51 72.2 °F 70.7 °F 29.85 in WSW 3.3 mph 5.8 mph 95 % 0.00 in
06:56 72.3 °F 70.8 °F 29.86 in SSW 2.2 mph 3.5 mph 95 % 0.00 in
07:01 72.4 °F 70.9 °F 29.86 in SW 2.5 mph 5.8 mph 95 % 0.00 in
07:06 72.6 °F 71.1 °F 29.86 in West 2.0 mph 3.5 mph 95 % 0.00 in
07:11 72.8 °F 71.3 °F 29.86 in WSW 1.7 mph 4.0 mph 95 % 0.00 in
07:16 73.1 °F 71.6 °F 29.86 in West 3.0 mph 4.6 mph 95 % 0.00 in
07:21 73.3 °F 71.5 °F 29.86 in West 2.3 mph 5.8 mph 94 % 0.00 in
07:27 73.5 °F 71.7 °F 29.86 in WNW 0.3 mph 2.3 mph 94 % 0.00 in
07:37 74.0 °F 71.8 °F 29.86 in WSW 1.0 mph 3.5 mph 93 % 0.00 in
07:42 74.1 °F 71.9 °F 29.87 in WSW 4.0 mph 6.0 mph 93 % 0.00 in
07:47 74.3 °F 71.8 °F 29.87 in SW 2.3 mph 4.6 mph 92 % 0.00 in
07:52 74.4 °F 71.9 °F 29.87 in SSW 1.1 mph 3.5 mph 92 % 0.00 in
07:57 74.4 °F 71.9 °F 29.87 in WNW 0.6 mph 3.0 mph 92 % 0.00 in
08:02 74.5 °F 72.0 °F 29.87 in SW 0.4 mph 4.6 mph 92 % 0.00 in
08:07 74.6 °F 72.1 °F 29.88 in South 1.9 mph 4.0 mph 92 % 0.00 in
08:12 74.7 °F 71.9 °F 29.88 in NW 2.6 mph 3.5 mph 91 % 0.00 in
08:18 74.8 °F 72.3 °F 29.88 in NW 1.3 mph 4.6 mph 92 % 0.00 in
08:23 74.9 °F 72.1 °F 29.87 in WSW 2.9 mph 5.8 mph 91 % 0.00 in
08:28 75.0 °F 72.2 °F 29.87 in WNW 2.2 mph 3.5 mph 91 % 0.00 in
08:33 75.2 °F 72.4 °F 29.87 in NW 1.5 mph 3.5 mph 91 % 0.00 in
08:38 75.3 °F 72.2 °F 29.87 in WNW 2.3 mph 3.5 mph 90 % 0.00 in
08:43 75.5 °F 72.4 °F 29.87 in NW 2.3 mph 4.0 mph 90 % 0.00 in
08:48 75.6 °F 72.5 °F 29.87 in WNW 1.6 mph 4.6 mph 90 % 0.00 in
08:53 75.7 °F 72.6 °F 29.87 in SSW 4.6 mph 6.9 mph 90 % 0.00 in
08:58 75.8 °F 72.3 °F 29.87 in SSW 3.3 mph 5.8 mph 89 % 0.00 in
09:03 76.0 °F 72.5 °F 29.87 in SSW 4.2 mph 8.1 mph 89 % 0.00 in
09:09 76.1 °F 72.6 °F 29.88 in West 1.9 mph 3.5 mph 89 % 0.00 in
09:14 76.3 °F 72.8 °F 29.87 in SSW 3.0 mph 5.8 mph 89 % 0.00 in
09:19 76.5 °F 73.0 °F 29.87 in WSW 2.1 mph 5.0 mph 89 % 0.00 in
09:24 76.6 °F 73.1 °F 29.87 in West 2.4 mph 4.6 mph 89 % 0.00 in
09:29 76.8 °F 73.3 °F 29.87 in SSW 3.7 mph 5.8 mph 89 % 0.00 in
09:34 76.9 °F 73.1 °F 29.87 in WSW 6.3 mph 9.0 mph 88 % 0.00 in
09:39 77.2 °F 73.0 °F 29.87 in SSW 5.8 mph 9.0 mph 87 % 0.00 in
09:44 77.4 °F 73.6 °F 29.87 in SW 2.2 mph 3.5 mph 88 % 0.00 in
09:49 77.7 °F 73.5 °F 29.87 in SW 4.6 mph 6.0 mph 87 % 0.00 in
09:55 78.0 °F 73.8 °F 29.87 in WSW 2.2 mph 5.8 mph 87 % 0.00 in
10:00 78.6 °F 74.4 °F 29.87 in WSW 2.3 mph 3.5 mph 87 % 0.00 in
10:05 79.2 °F 75.0 °F 29.87 in WSW 3.0 mph 5.8 mph 87 % 0.00 in
10:10 79.9 °F 75.0 °F 29.87 in SW 2.9 mph 8.1 mph 85 % 0.00 in
10:15 80.7 °F 75.4 °F 29.86 in SSW 2.8 mph 9.2 mph 84 % 0.00 in
10:20 81.5 °F 75.1 °F 29.86 in SSW 4.8 mph 8.1 mph 81 % 0.00 in
10:25 82.3 °F 75.9 °F 29.86 in SSW 2.1 mph 4.6 mph 81 % 0.00 in
10:30 83.1 °F 75.9 °F 29.86 in West 1.7 mph 5.0 mph 79 % 0.00 in
10:35 83.6 °F 75.6 °F 29.87 in West 4.0 mph 8.0 mph 77 % 0.00 in
10:40 84.0 °F 74.4 °F 29.86 in WSW 6.1 mph 8.1 mph 73 % 0.00 in
10:45 84.5 °F 74.9 °F 29.87 in West 5.0 mph 9.2 mph 73 % 0.00 in
10:50 85.1 °F 75.1 °F 29.87 in NW 6.0 mph 9.0 mph 72 % 0.00 in
10:55 85.7 °F 73.9 °F 29.87 in West 1.7 mph 3.5 mph 68 % 0.00 in
11:01 86.3 °F 74.0 °F 29.87 in NW 5.7 mph 10.4 mph 67 % 0.00 in
11:06 86.6 °F 74.8 °F 29.87 in West 1.0 mph 10.0 mph 68 % 0.00 in
11:11 87.0 °F 74.7 °F 29.87 in WNW 1.0 mph 6.0 mph 67 % 0.00 in
11:16 87.3 °F 74.5 °F 29.86 in West 4.3 mph 6.9 mph 66 % 0.00 in
11:21 87.4 °F 74.7 °F 29.86 in WSW 3.0 mph 7.0 mph 66 % 0.00 in
11:26 87.8 °F 75.0 °F 29.86 in WSW 2.0 mph 6.0 mph 66 % 0.00 in
11:31 88.1 °F 73.9 °F 29.86 in WSW 5.0 mph 10.0 mph 63 % 0.00 in
11:36 88.4 °F 74.7 °F 29.86 in WSW 3.0 mph 9.0 mph 64 % 0.00 in
11:41 88.7 °F 75.0 °F 29.86 in West 3.0 mph 10.0 mph 64 % 0.00 in
11:46 89.1 °F 75.3 °F 29.86 in WSW 5.0 mph 13.0 mph 64 % 0.00 in
11:51 89.3 °F 74.1 °F 29.86 in WSW 6.0 mph 9.0 mph 61 % 0.00 in
11:56 89.4 °F 73.7 °F 29.86 in WSW 5.0 mph 9.0 mph 60 % 0.00 in
12:01 89.5 °F 73.8 °F 29.86 in SW 4.4 mph 5.8 mph 60 % 0.00 in
12:06 89.7 °F 73.5 °F 29.86 in SW 6.0 mph 12.0 mph 59 % 0.00 in
12:11 89.9 °F 73.7 °F 29.85 in SSW 3.0 mph 7.0 mph 59 % 0.00 in
12:16 90.4 °F 75.6 °F 29.85 in SSW 3.0 mph 10.0 mph 62 % 0.00 in
12:21 90.8 °F 75.0 °F 29.85 in WSW 6.0 mph 9.0 mph 60 % 0.00 in
12:26 91.0 °F 74.7 °F 29.85 in WSW 3.0 mph 8.0 mph 59 % 0.00 in
12:31 91.1 °F 73.7 °F 29.85 in SW 5.0 mph 9.0 mph 57 % 0.00 in
12:36 91.4 °F 74.5 °F 29.85 in WSW 7.0 mph 9.0 mph 58 % 0.00 in
12:41 91.3 °F 73.9 °F 29.84 in SW 5.0 mph 9.0 mph 57 % 0.00 in
12:46 91.5 °F 73.0 °F 29.85 in WSW 3.0 mph 9.0 mph 55 % 0.00 in
12:51 91.7 °F 73.3 °F 29.85 in WNW 6.0 mph 10.0 mph 55 % 0.00 in
12:56 91.9 °F 74.0 °F 29.84 in WNW 2.0 mph 7.0 mph 56 % 0.00 in
13:01 92.2 °F 73.2 °F 29.84 in NW 3.7 mph 8.1 mph 54 % 0.00 in
13:06 92.5 °F 74.5 °F 29.84 in WNW 3.0 mph 8.0 mph 56 % 0.00 in
13:11 92.9 °F 73.8 °F 29.84 in WNW 2.0 mph 7.0 mph 54 % 0.00 in
13:16 93.4 °F 73.7 °F 29.84 in WNW 5.0 mph 12.0 mph 53 % 0.00 in
13:20 93.6 °F 74.5 °F 29.84 in North 2.8 mph 3.5 mph 54 % 0.00 in
13:26 93.7 °F 71.7 °F 29.84 in West 5.0 mph 10.0 mph 49 % 0.00 in
13:31 93.8 °F 72.9 °F 29.84 in West 3.0 mph 9.0 mph 51 % 0.00 in
13:35 93.7 °F 71.0 °F 29.84 in NW 5.1 mph 10.4 mph 48 % 0.00 in
13:41 93.8 °F 72.9 °F 29.84 in WNW 3.0 mph 12.0 mph 51 % 0.00 in
13:46 93.9 °F 71.2 °F 29.83 in West 6.0 mph 12.0 mph 48 % 0.00 in
13:51 93.8 °F 71.7 °F 29.83 in West 2.0 mph 9.0 mph 49 % 0.00 in
13:56 93.9 °F 71.8 °F 29.83 in WNW 5.0 mph 12.0 mph 49 % 0.00 in
14:01 94.0 °F 70.7 °F 29.83 in West 6.7 mph 11.5 mph 47 % 0.00 in
14:06 93.9 °F 71.8 °F 29.83 in WNW 4.3 mph 6.9 mph 49 % 0.00 in
14:11 93.8 °F 69.9 °F 29.83 in North 4.8 mph 6.9 mph 46 % 0.00 in
14:16 93.8 °F 72.3 °F 29.83 in West 3.4 mph 6.0 mph 50 % 0.00 in
14:21 93.9 °F 70.0 °F 29.83 in WNW 5.3 mph 9.0 mph 46 % 0.00 in
14:26 93.8 °F 71.7 °F 29.83 in NNW 2.4 mph 8.1 mph 49 % 0.00 in
14:31 93.6 °F 71.0 °F 29.83 in NE 2.3 mph 10.4 mph 48 % 0.00 in
14:36 93.5 °F 70.9 °F 29.83 in WNW 3.6 mph 5.8 mph 48 % 0.00 in
14:41 93.5 °F 70.2 °F 29.83 in West 1.6 mph 5.8 mph 47 % 0.00 in
14:46 93.4 °F 71.4 °F 29.83 in SSW 3.4 mph 10.4 mph 49 % 0.00 in
14:52 93.4 °F 72.0 °F 29.83 in NW 2.0 mph 10.4 mph 50 % 0.00 in
14:57 93.5 °F 71.5 °F 29.83 in WNW 4.2 mph 9.2 mph 49 % 0.00 in
15:02 93.6 °F 71.0 °F 29.83 in WNW 4.1 mph 6.9 mph 48 % 0.00 in
15:07 93.6 °F 70.3 °F 29.83 in WNW 6.6 mph 9.2 mph 47 % 0.00 in
15:12 93.6 °F 69.7 °F 29.83 in SSW 4.1 mph 6.9 mph 46 % 0.00 in
15:17 93.5 °F 69.0 °F 29.82 in NW 6.3 mph 10.4 mph 45 % 0.00 in
15:22 93.6 °F 71.6 °F 29.82 in SW 5.2 mph 9.2 mph 49 % 0.00 in
15:27 93.7 °F 69.8 °F 29.82 in NNW 3.2 mph 4.6 mph 46 % 0.00 in
15:32 93.8 °F 69.2 °F 29.82 in WSW 4.3 mph 6.9 mph 45 % 0.00 in
15:37 93.8 °F 69.9 °F 29.82 in WNW 5.1 mph 8.1 mph 46 % 0.00 in
15:42 93.7 °F 68.5 °F 29.83 in WSW 4.3 mph 10.4 mph 44 % 0.00 in
15:47 93.7 °F 69.2 °F 29.83 in NNW 5.6 mph 9.2 mph 45 % 0.00 in
15:52 93.8 °F 70.5 °F 29.82 in WNW 3.0 mph 5.0 mph 47 % 0.00 in
15:58 94.0 °F 70.1 °F 29.82 in WNW 3.8 mph 10.0 mph 46 % 0.00 in
16:03 94.0 °F 69.4 °F 29.82 in West 4.6 mph 10.4 mph 45 % 0.00 in
16:08 93.9 °F 69.3 °F 29.82 in West 5.9 mph 9.2 mph 45 % 0.00 in
16:13 93.5 °F 69.6 °F 29.82 in West 2.6 mph 8.1 mph 46 % 0.00 in
16:18 93.5 °F 69.6 °F 29.82 in WSW 2.8 mph 9.2 mph 46 % 0.00 in
16:23 93.7 °F 70.4 °F 29.82 in North 2.2 mph 4.0 mph 47 % 0.00 in
16:28 93.6 °F 71.0 °F 29.82 in NW 2.3 mph 3.5 mph 48 % 0.00 in
16:33 93.3 °F 69.4 °F 29.82 in NNW 3.2 mph 6.9 mph 46 % 0.00 in
16:38 93.1 °F 70.5 °F 29.82 in NNW 1.7 mph 3.5 mph 48 % 0.00 in
16:43 93.0 °F 71.6 °F 29.82 in West 0.3 mph 3.5 mph 50 % 0.00 in
16:48 92.8 °F 70.2 °F 29.82 in WSW 1.3 mph 4.6 mph 48 % 0.00 in
16:54 92.7 °F 70.7 °F 29.82 in NW 0.9 mph 3.5 mph 49 % 0.00 in
17:04 92.0 °F 68.9 °F 29.82 in WNW 4.7 mph 8.1 mph 47 % 0.00 in
17:09 91.8 °F 70.5 °F 29.82 in North 0.7 mph 3.0 mph 50 % 0.00 in
17:14 91.5 °F 69.6 °F 29.82 in NE 3.1 mph 9.2 mph 49 % 0.00 in
17:19 91.2 °F 70.0 °F 29.82 in NNW 1.5 mph 3.5 mph 50 % 0.00 in
17:24 90.8 °F 69.6 °F 29.82 in NW 2.3 mph 4.6 mph 50 % 0.00 in
17:29 90.6 °F 70.0 °F 29.82 in WNW 2.2 mph 4.6 mph 51 % 0.00 in
17:34 90.3 °F 68.5 °F 29.82 in NW 2.2 mph 4.6 mph 49 % 0.00 in
17:39 90.0 °F 69.4 °F 29.82 in WNW 0.4 mph 5.8 mph 51 % 0.00 in
17:45 89.7 °F 68.0 °F 29.82 in West 2.6 mph 5.8 mph 49 % 0.00 in
17:50 89.4 °F 68.3 °F 29.82 in NW 2.3 mph 4.6 mph 50 % 0.00 in
17:55 89.3 °F 68.8 °F 29.82 in WNW 1.7 mph 8.1 mph 51 % 0.00 in
18:00 89.2 °F 68.1 °F 29.82 in WNW 0.3 mph 5.8 mph 50 % 0.00 in
18:05 89.0 °F 68.5 °F 29.82 in WNW 0.8 mph 3.5 mph 51 % 0.00 in
18:10 88.7 °F 68.2 °F 29.82 in WSW 2.2 mph 3.5 mph 51 % 0.00 in
18:15 88.5 °F 68.1 °F 29.82 in WNW 2.3 mph 5.8 mph 51 % 0.00 in
18:20 88.3 °F 67.3 °F 29.82 in NW 1.8 mph 3.5 mph 50 % 0.00 in
18:25 88.1 °F 67.1 °F 29.82 in NW 1.1 mph 5.0 mph 50 % 0.00 in
18:30 88.0 °F 67.0 °F 29.82 in WNW 0.8 mph 3.5 mph 50 % 0.00 in
18:36 87.9 °F 67.5 °F 29.82 in WNW 1.0 mph 7.0 mph 51 % 0.00 in
18:41 87.7 °F 66.7 °F 29.82 in NW 3.0 mph 6.0 mph 50 % 0.00 in
18:45 87.5 °F 66.6 °F 29.82 in NW 1.0 mph 6.0 mph 50 % 0.00 in
18:51 87.4 °F 67.6 °F 29.82 in Calm   6.0 mph 52 % 0.00 in
18:55 87.1 °F 67.4 °F 29.83 in WNW 1.0 mph 6.0 mph 52 % 0.00 in
19:01 86.9 °F 66.6 °F 29.83 in SW 2.2 mph 8.1 mph 51 % 0.00 in
19:06 86.7 °F 66.4 °F 29.83 in WNW 1.7 mph 5.8 mph 51 % 0.00 in
19:11 86.5 °F 66.2 °F 29.82 in WNW 2.2 mph 4.6 mph 51 % 0.00 in
19:16 86.3 °F 67.2 °F 29.82 in West 2.3 mph 5.0 mph 53 % 0.00 in
19:21 86.1 °F 66.4 °F 29.82 in WSW 2.9 mph 4.0 mph 52 % 0.00 in
19:26 85.8 °F 66.7 °F 29.82 in WNW 1.0 mph 1.2 mph 53 % 0.00 in
19:31 85.6 °F 67.0 °F 29.82 in WNW 0.5 mph 3.0 mph 54 % 0.00 in
19:36 85.3 °F 67.8 °F 29.82 in NW 0.3 mph 3.5 mph 56 % 0.00 in
19:41 85.0 °F 68.1 °F 29.83 in NW 0.4 mph 1.2 mph 57 % 0.00 in
19:46 84.6 °F 68.2 °F 29.83 in NW 0.8 mph 2.3 mph 58 % 0.00 in
19:52 84.3 °F 68.4 °F 29.83 in NW 0.7 mph 2.3 mph 59 % 0.00 in
19:57 83.9 °F 68.5 °F 29.83 in NW 0.7 mph 2.3 mph 60 % 0.00 in
20:02 83.5 °F 68.2 °F 29.84 in NW 0.7 mph 2.3 mph 60 % 0.00 in
20:07 83.2 °F 67.9 °F 29.84 in WNW 1.6 mph 4.0 mph 60 % 0.00 in
20:12 82.8 °F 68.0 °F 29.84 in NW 1.4 mph 3.5 mph 61 % 0.00 in
20:17 82.4 °F 67.6 °F 29.84 in WNW 0.2 mph 2.3 mph 61 % 0.00 in
20:22 82.1 °F 67.8 °F 29.84 in NW 2.0 mph 3.5 mph 62 % 0.00 in
20:27 81.8 °F 67.0 °F 29.84 in WNW 2.1 mph 5.0 mph 61 % 0.00 in
20:32 81.7 °F 67.4 °F 29.84 in WNW 1.0 mph 3.5 mph 62 % 0.00 in
20:37 81.5 °F 67.2 °F 29.84 in Calm   2.3 mph 62 % 0.00 in
20:43 81.4 °F 67.6 °F 29.84 in Calm     63 % 0.00 in
20:48 81.2 °F 67.4 °F 29.85 in West 0.2 mph 2.3 mph 63 % 0.00 in
20:53 81.1 °F 67.3 °F 29.85 in Calm   1.2 mph 63 % 0.00 in
20:58 80.9 °F 67.6 °F 29.86 in West 0.5 mph 2.3 mph 64 % 0.00 in
21:03 80.8 °F 67.5 °F 29.86 in West 0.5 mph 3.0 mph 64 % 0.00 in
21:08 80.6 °F 67.3 °F 29.86 in Calm   2.3 mph 64 % 0.00 in
21:13 80.5 °F 67.2 °F 29.87 in Calm   1.2 mph 64 % 0.00 in
21:18 80.4 °F 67.6 °F 29.87 in WNW 0.1 mph 1.0 mph 65 % 0.00 in
21:23 80.2 °F 67.8 °F 29.87 in WNW 0.1 mph 1.2 mph 66 % 0.00 in
21:28 80.1 °F 68.2 °F 29.87 in Calm   1.2 mph 67 % 0.00 in
21:34 79.9 °F 68.4 °F 29.87 in WNW 0.1 mph 1.2 mph 68 % 0.00 in
21:39 79.6 °F 68.1 °F 29.87 in WNW 0.3 mph 2.3 mph 68 % 0.00 in
21:44 79.4 °F 67.9 °F 29.88 in WNW 0.6 mph 2.3 mph 68 % 0.00 in
21:49 79.2 °F 67.3 °F 29.87 in WNW 0.1 mph 1.2 mph 67 % 0.00 in
21:54 79.1 °F 67.6 °F 29.87 in WNW 0.6 mph 3.0 mph 68 % 0.00 in
21:59 78.9 °F 67.4 °F 29.87 in Calm     68 % 0.00 in
22:04 78.8 °F 67.8 °F 29.88 in WNW 0.7 mph 2.3 mph 69 % 0.00 in
22:09 78.7 °F 67.7 °F 29.87 in WNW 0.4 mph 1.2 mph 69 % 0.00 in
22:14 78.6 °F 67.6 °F 29.87 in Calm   1.2 mph 69 % 0.00 in
22:20 78.5 °F 67.9 °F 29.87 in Calm     70 % 0.00 in
22:25 78.4 °F 68.2 °F 29.87 in Calm     71 % 0.00 in
22:30 78.2 °F 68.0 °F 29.87 in Calm     71 % 0.00 in
22:35 78.0 °F 68.6 °F 29.87 in Calm     73 % 0.00 in
22:40 77.8 °F 68.4 °F 29.87 in Calm     73 % 0.00 in
22:45 77.6 °F 68.3 °F 29.87 in Calm     73 % 0.00 in
22:50 77.4 °F 68.1 °F 29.88 in Calm   1.0 mph 73 % 0.00 in
22:55 77.2 °F 68.3 °F 29.88 in WNW 0.3 mph 1.2 mph 74 % 0.00 in
23:00 77.0 °F 68.5 °F 29.88 in West 0.5 mph 1.2 mph 75 % 0.00 in
23:05 76.8 °F 68.3 °F 29.88 in West 0.1 mph 1.2 mph 75 % 0.00 in
23:11 76.6 °F 68.1 °F 29.89 in WSW 1.7 mph 3.0 mph 75 % 0.00 in
23:16 76.5 °F 68.0 °F 29.89 in WSW 1.0 mph 3.0 mph 75 % 0.00 in
23:21 76.3 °F 67.8 °F 29.89 in WSW 2.0 mph 4.0 mph 75 % 0.00 in
23:26 76.2 °F 67.7 °F 29.89 in Calm   5.0 mph 75 % 0.00 in
23:31 76.2 °F 67.7 °F 29.89 in West 1.0 mph 3.0 mph 75 % 0.00 in
23:36 76.1 °F 67.6 °F 29.89 in Calm   1.0 mph 75 % 0.00 in
23:41 76.1 °F 67.6 °F 29.89 in Calm     75 % 0.00 in
23:46 76.1 °F 67.2 °F 29.89 in Calm   2.0 mph 74 % 0.00 in
23:51 76.1 °F 67.6 °F 29.89 in WNW 1.0 mph 3.0 mph 75 % 0.00 in
23:56 76.0 °F 67.5 °F 29.89 in WNW 0.1 mph   75 % 0.00 in
Crab Meadow Weather
Compliments of Weather Underground - 3 mb

Script developed by  Jim McMurry - jmcmurry@mwt.net Adapted for the template by  Wim van der Kuil - Leuven-Template.eu

Weather Terms: Tornado - A violently rotating column of air, from a thunderstorm, in contact with the ground.